createdAt,value
2023-05-16T00:00:41.510Z,3.00
2023-05-16T00:03:08.511Z,3.43
2023-05-16T00:05:36.821Z,2.97
2023-05-16T00:08:03.895Z,1.97
2023-05-16T00:10:30.905Z,3.37
2023-05-16T00:12:57.764Z,1.67
2023-05-16T00:15:25.096Z,2.90
2023-05-16T00:17:52.576Z,5.20
2023-05-16T00:20:23.383Z,3.93
2023-05-16T00:22:50.991Z,12.93
2023-05-16T00:25:18.189Z,17.47
2023-05-16T00:27:45.112Z,21.90
2023-05-16T00:30:12.655Z,21.87
2023-05-16T00:32:39.623Z,15.20
2023-05-16T00:35:07.372Z,19.97
2023-05-16T00:37:34.196Z,3.60
2023-05-16T00:40:01.065Z,20.93
2023-05-16T00:42:28.049Z,8.27
2023-05-16T00:44:54.868Z,3.50
2023-05-16T00:47:21.782Z,5.90
2023-05-16T00:49:51.101Z,7.73
2023-05-16T00:52:18.051Z,4.80
2023-05-16T00:54:44.997Z,4.10
2023-05-16T00:57:12.031Z,3.70
2023-05-16T00:59:40.132Z,3.37
2023-05-16T01:02:07.008Z,3.17
2023-05-16T01:04:33.833Z,4.70
2023-05-16T01:07:02.733Z,3.97
2023-05-16T01:09:29.754Z,4.77
2023-05-16T01:12:20.639Z,4.57
2023-05-16T01:15:09.288Z,2.80
2023-05-16T01:18:06.450Z,3.93
2023-05-16T01:20:42.464Z,4.20
2023-05-16T01:23:28.161Z,2.70
2023-05-16T01:26:03.781Z,4.13
2023-05-16T01:28:31.724Z,5.07
2023-05-16T01:30:58.630Z,7.97
2023-05-16T01:33:25.593Z,5.27
2023-05-16T01:36:11.362Z,6.43
2023-05-16T01:39:01.393Z,8.50
2023-05-16T01:41:34.657Z,4.73
2023-05-16T01:44:07.761Z,2.93
2023-05-16T01:46:42.065Z,3.73
2023-05-16T01:49:31.388Z,3.90
2023-05-16T01:52:07.266Z,4.00
2023-05-16T01:54:38.910Z,9.43
2023-05-16T01:57:08.240Z,3.60
2023-05-16T01:59:36.005Z,2.33
2023-05-16T02:02:03.453Z,3.10
2023-05-16T02:04:30.546Z,2.77
2023-05-16T02:06:57.653Z,6.57
2023-05-16T02:09:25.991Z,3.00
2023-05-16T02:11:52.978Z,2.77
2023-05-16T02:14:19.840Z,3.00
2023-05-16T02:16:46.819Z,3.67
2023-05-16T02:19:13.742Z,5.77
2023-05-16T02:21:40.670Z,5.63
2023-05-16T02:24:07.652Z,5.97
2023-05-16T02:26:34.754Z,3.57
2023-05-16T02:29:01.590Z,3.30
2023-05-16T02:31:33.529Z,4.20
2023-05-16T02:34:01.552Z,3.40
2023-05-16T02:36:28.735Z,4.77
2023-05-16T02:38:55.649Z,3.17
2023-05-16T02:41:23.155Z,5.13
2023-05-16T02:43:50.074Z,3.87
2023-05-16T02:46:31.596Z,2.90
2023-05-16T02:48:58.557Z,3.80
2023-05-16T02:51:27.640Z,3.57
2023-05-16T02:53:57.263Z,3.47
2023-05-16T02:56:24.276Z,5.20
2023-05-16T02:58:51.206Z,2.50
2023-05-16T03:01:18.562Z,2.80
2023-05-16T03:03:45.583Z,2.80
2023-05-16T03:06:12.895Z,3.00
2023-05-16T03:08:39.794Z,2.40
2023-05-16T03:11:06.726Z,2.70
2023-05-16T03:13:33.974Z,2.70
2023-05-16T03:16:01.403Z,2.47
2023-05-16T03:18:28.562Z,2.20
2023-05-16T03:20:55.588Z,4.97
2023-05-16T03:23:22.495Z,1.93
2023-05-16T03:25:49.566Z,2.63
2023-05-16T03:28:18.155Z,2.93
2023-05-16T03:30:45.224Z,3.70
2023-05-16T03:33:12.294Z,2.80
2023-05-16T03:35:39.960Z,2.90
2023-05-16T03:38:07.457Z,3.20
2023-05-16T03:40:34.299Z,3.03
2023-05-16T03:43:01.193Z,2.07
2023-05-16T03:45:29.374Z,2.20
2023-05-16T03:47:56.723Z,2.83
2023-05-16T03:50:23.980Z,2.83
2023-05-16T03:52:53.751Z,2.40
2023-05-16T03:55:21.533Z,2.60
2023-05-16T03:57:50.021Z,1.40
2023-05-16T04:00:17.331Z,1.70
2023-05-16T04:02:44.909Z,13.90
2023-05-16T04:05:13.882Z,5.40
2023-05-16T04:07:41.379Z,3.70
2023-05-16T04:10:09.786Z,3.17
2023-05-16T04:12:37.234Z,5.87
2023-05-16T04:15:05.605Z,10.50
2023-05-16T04:17:33.026Z,6.20
2023-05-16T04:20:00.789Z,3.80
2023-05-16T04:22:27.756Z,3.30
2023-05-16T04:24:54.645Z,5.47
2023-05-16T04:27:21.776Z,5.43
2023-05-16T04:29:48.682Z,3.57
2023-05-16T04:32:15.683Z,2.80
2023-05-16T04:34:44.222Z,2.17
2023-05-16T04:37:11.641Z,3.10
2023-05-16T04:39:38.538Z,2.77
2023-05-16T04:42:06.223Z,4.47
2023-05-16T04:44:33.087Z,4.30
2023-05-16T04:46:59.958Z,5.57
2023-05-16T04:49:26.852Z,3.30
2023-05-16T04:51:53.695Z,3.60
2023-05-16T04:54:20.643Z,4.30
2023-05-16T04:56:47.505Z,7.90
2023-05-16T04:59:15.154Z,6.87
2023-05-16T05:01:42.246Z,4.07
2023-05-16T05:04:09.183Z,3.60
2023-05-16T05:06:36.101Z,5.37
2023-05-16T05:09:03.217Z,2.00
2023-05-16T05:11:33.247Z,3.77
2023-05-16T05:14:00.188Z,3.87
2023-05-16T05:16:27.273Z,8.40
2023-05-16T05:18:54.240Z,3.37
2023-05-16T05:21:22.059Z,2.73
2023-05-16T05:23:49.775Z,4.80
2023-05-16T05:26:17.206Z,4.43
2023-05-16T05:28:53.812Z,3.77
2023-05-16T05:31:24.684Z,3.70
2023-05-16T05:33:51.706Z,3.57
2023-05-16T05:36:18.534Z,3.57
2023-05-16T05:38:45.483Z,3.70
2023-05-16T05:41:12.419Z,2.90
2023-05-16T05:43:39.354Z,3.50
2023-05-16T05:46:07.112Z,3.00
2023-05-16T05:48:34.363Z,9.13
2023-05-16T05:51:01.286Z,2.53
2023-05-16T05:53:28.353Z,2.37
2023-05-16T05:55:55.491Z,3.33
2023-05-16T05:58:23.326Z,2.07
2023-05-16T06:00:50.208Z,2.57
2023-05-16T06:03:19.187Z,3.77
2023-05-16T06:05:46.195Z,4.17
2023-05-16T06:08:13.054Z,3.47
2023-05-16T06:10:39.953Z,4.00
2023-05-16T06:13:06.817Z,3.10
2023-05-16T06:15:33.737Z,2.20
2023-05-16T06:18:00.830Z,2.60
2023-05-16T06:20:27.726Z,3.33
2023-05-16T06:22:54.631Z,3.57
2023-05-16T06:25:21.498Z,2.73
2023-05-16T06:27:49.943Z,2.87
2023-05-16T06:30:17.368Z,3.30
2023-05-16T06:32:44.605Z,4.37
2023-05-16T06:35:11.658Z,6.07
2023-05-16T06:37:39.581Z,2.73
2023-05-16T06:40:07.942Z,4.13
2023-05-16T06:42:34.987Z,3.27
2023-05-16T06:45:02.104Z,3.57
2023-05-16T06:47:29.181Z,2.57
2023-05-16T06:49:56.147Z,2.10
2023-05-16T06:52:23.985Z,2.27
2023-05-16T06:54:51.033Z,2.57
2023-05-16T06:57:18.050Z,2.17
2023-05-16T06:59:45.083Z,2.30
2023-05-16T07:02:12.076Z,3.43
2023-05-16T07:04:40.971Z,3.30
2023-05-16T07:07:09.098Z,3.10
2023-05-16T07:09:36.128Z,4.47
2023-05-16T07:12:06.005Z,2.10
2023-05-16T07:14:32.983Z,2.43
2023-05-16T07:17:01.040Z,2.57
2023-05-16T07:19:28.380Z,5.60
2023-05-16T07:21:55.457Z,5.70
2023-05-16T07:24:22.407Z,2.93
2023-05-16T07:26:49.653Z,3.10
2023-05-16T07:29:18.549Z,3.53
2023-05-16T07:31:46.034Z,3.53
2023-05-16T07:34:13.323Z,6.03
2023-05-16T07:36:40.436Z,3.97
2023-05-16T07:39:07.328Z,4.73
2023-05-16T07:41:34.339Z,5.00
2023-05-16T07:44:01.348Z,6.23
2023-05-16T07:46:28.454Z,6.77
2023-05-16T07:48:55.456Z,5.47
2023-05-16T07:51:22.422Z,5.00
2023-05-16T07:53:49.556Z,5.07
2023-05-16T07:56:16.482Z,2.63
2023-05-16T07:58:43.939Z,4.23
2023-05-16T08:01:11.955Z,2.97
2023-05-16T08:03:39.102Z,3.00
2023-05-16T08:06:06.526Z,2.03
2023-05-16T08:08:33.559Z,26.03
2023-05-16T08:11:00.724Z,5.67
2023-05-16T08:13:27.715Z,5.57
2023-05-16T08:15:54.792Z,2.87
2023-05-16T08:18:22.835Z,3.07
2023-05-16T08:20:50.128Z,4.90
2023-05-16T08:23:17.207Z,3.90
2023-05-16T08:25:46.632Z,9.23
2023-05-16T08:28:13.672Z,10.20
2023-05-16T08:30:42.904Z,9.30
2023-05-16T08:33:10.702Z,7.10
2023-05-16T08:35:37.744Z,8.10
2023-05-16T08:38:04.998Z,11.67
2023-05-16T08:40:32.403Z,9.30
2023-05-16T08:43:00.019Z,8.50
2023-05-16T08:45:27.699Z,8.67
2023-05-16T08:47:55.993Z,16.90
2023-05-16T08:50:24.421Z,29.27
2023-05-16T08:52:53.835Z,21.67
2023-05-16T08:55:23.861Z,10.20
2023-05-16T08:57:54.064Z,25.83
2023-05-16T09:00:22.785Z,12.00
2023-05-16T09:02:50.518Z,19.07
2023-05-16T09:05:18.241Z,12.13
2023-05-16T09:07:46.124Z,8.40
2023-05-16T09:10:13.972Z,5.33
2023-05-16T09:12:42.416Z,9.47
2023-05-16T09:15:11.267Z,7.43
2023-05-16T09:17:48.991Z,21.87
2023-05-16T09:20:18.633Z,26.40
2023-05-16T09:22:53.200Z,29.47
2023-05-16T09:25:30.363Z,7.17
2023-05-16T09:28:01.410Z,13.40
2023-05-16T09:30:39.511Z,9.00
2023-05-16T09:33:08.046Z,21.03
2023-05-16T09:35:44.804Z,13.00
2023-05-16T09:38:21.188Z,6.70
2023-05-16T09:40:51.307Z,6.80
2023-05-16T09:46:22.946Z,11.70
2023-05-16T09:48:58.339Z,4.87
2023-05-16T09:51:28.871Z,5.03
2023-05-16T09:54:01.174Z,5.47
2023-05-16T09:56:30.180Z,5.57
2023-05-16T09:59:24.014Z,6.77
2023-05-16T10:01:55.591Z,12.40
2023-05-16T10:04:23.021Z,4.60
2023-05-16T10:06:52.549Z,4.97
2023-05-16T10:09:21.315Z,5.43
2023-05-16T10:11:49.698Z,3.93
2023-05-16T10:14:19.013Z,5.20
2023-05-16T10:16:51.402Z,5.47
2023-05-16T10:19:21.758Z,5.20
2023-05-16T10:21:53.607Z,7.80
2023-05-16T10:24:29.813Z,3.50
2023-05-16T10:26:56.788Z,3.50
2023-05-16T10:29:28.373Z,3.93
2023-05-16T10:31:58.242Z,4.00
2023-05-16T10:34:37.543Z,4.80
2023-05-16T10:37:05.444Z,4.60
2023-05-16T10:39:41.313Z,7.00
2023-05-16T10:42:19.988Z,12.80
2023-05-16T10:45:02.027Z,4.57
2023-05-16T10:47:44.047Z,5.27
2023-05-16T10:50:14.558Z,6.23
2023-05-16T10:52:41.479Z,5.27
2023-05-16T10:55:08.554Z,6.60
2023-05-16T10:57:37.873Z,5.47
2023-05-16T11:00:09.548Z,6.20
2023-05-16T11:02:41.716Z,11.10
2023-05-16T11:05:17.917Z,10.97
2023-05-16T11:07:44.962Z,6.80
2023-05-16T11:10:16.398Z,6.30
2023-05-16T11:12:49.611Z,6.30
2023-05-16T11:15:24.858Z,6.00
2023-05-16T11:18:15.950Z,6.67
2023-05-16T11:20:44.116Z,7.40
2023-05-16T11:23:33.088Z,12.47
2023-05-16T11:26:01.288Z,8.00
2023-05-16T11:28:28.443Z,6.10
2023-05-16T11:31:00.061Z,4.60
2023-05-16T11:33:29.942Z,4.70
2023-05-16T11:36:16.602Z,8.00
2023-05-16T11:38:44.448Z,7.27
2023-05-16T11:41:15.577Z,7.30
2023-05-16T11:43:45.096Z,7.00
2023-05-16T11:46:16.347Z,6.07
2023-05-16T11:48:46.003Z,6.60
2023-05-16T11:51:18.751Z,7.83
2023-05-16T11:53:47.906Z,7.20
2023-05-16T11:56:17.778Z,4.83
2023-05-16T11:58:45.683Z,10.37
2023-05-16T12:01:13.047Z,5.90
2023-05-16T12:03:41.093Z,6.60
2023-05-16T12:06:09.114Z,7.63
2023-05-16T12:08:36.456Z,6.07
2023-05-16T12:11:28.996Z,7.30
2023-05-16T12:13:56.292Z,10.10
2023-05-16T12:16:23.791Z,5.37
2023-05-16T12:18:51.230Z,5.57
2023-05-16T12:21:18.374Z,5.20
2023-05-16T12:23:45.616Z,10.47
2023-05-16T12:26:12.877Z,6.50
2023-05-16T12:28:40.156Z,10.97
2023-05-16T12:31:30.349Z,8.83
2023-05-16T12:33:59.467Z,20.23
2023-05-16T12:36:26.666Z,12.27
2023-05-16T12:38:54.243Z,5.63
2023-05-16T12:41:22.692Z,5.57
2023-05-16T12:43:50.770Z,5.30
2023-05-16T12:46:20.037Z,5.10
2023-05-16T12:48:48.156Z,5.33
2023-05-16T12:51:17.661Z,6.60
2023-05-16T12:54:01.298Z,5.90
2023-05-16T12:56:35.431Z,7.47
2023-05-16T12:59:03.220Z,7.10
2023-05-16T13:01:30.373Z,7.53
2023-05-16T13:03:58.106Z,4.33
2023-05-16T13:06:25.319Z,5.27
2023-05-16T13:08:52.714Z,7.70
2023-05-16T13:11:20.864Z,6.77
2023-05-16T13:13:48.197Z,8.33
2023-05-16T13:16:18.379Z,9.30
2023-05-16T13:18:46.121Z,9.27
2023-05-16T13:21:13.119Z,7.07
2023-05-16T13:23:40.146Z,7.40
2023-05-16T13:26:07.521Z,14.20
2023-05-16T13:28:34.569Z,16.03
2023-05-16T13:31:01.655Z,5.70
2023-05-16T13:33:32.437Z,20.23
2023-05-16T13:36:05.136Z,8.93
2023-05-16T13:38:36.162Z,10.53
2023-05-16T13:41:03.161Z,4.53
2023-05-16T13:43:30.485Z,8.20
2023-05-16T13:45:58.126Z,6.40
2023-05-16T13:48:25.304Z,8.03
2023-05-16T13:50:53.505Z,4.93
2023-05-16T13:53:20.429Z,4.83
2023-05-16T13:55:47.721Z,4.10
2023-05-16T13:58:14.741Z,4.40
2023-05-16T14:00:45.852Z,4.10
2023-05-16T14:03:13.572Z,5.23
2023-05-16T14:05:40.851Z,4.30
2023-05-16T14:08:08.589Z,4.80
2023-05-16T14:10:35.708Z,5.97
2023-05-16T14:13:06.084Z,5.60
2023-05-16T14:15:36.358Z,4.97
2023-05-16T14:18:04.774Z,5.00
2023-05-16T14:20:32.034Z,5.00
2023-05-16T14:22:59.260Z,5.97
2023-05-16T14:25:26.443Z,4.87
2023-05-16T14:27:53.725Z,4.00
2023-05-16T14:30:21.131Z,5.50
2023-05-16T14:32:48.448Z,5.40
2023-05-16T14:35:16.039Z,4.67
2023-05-16T14:37:45.857Z,6.27
2023-05-16T14:40:15.362Z,5.20
2023-05-16T14:42:42.330Z,6.07
2023-05-16T14:45:09.592Z,6.90
2023-05-16T14:47:40.865Z,6.33
2023-05-16T14:50:32.960Z,4.90
2023-05-16T14:53:00.009Z,5.40
2023-05-16T14:55:27.340Z,6.10
2023-05-16T14:57:59.477Z,5.97
2023-05-16T15:00:27.726Z,4.90
2023-05-16T15:02:54.979Z,3.70
2023-05-16T15:05:22.114Z,3.07
2023-05-16T15:07:50.184Z,2.80
2023-05-16T15:10:17.476Z,5.03
2023-05-16T15:12:44.385Z,6.50
2023-05-16T15:15:13.511Z,5.70
2023-05-16T15:17:42.455Z,5.57
2023-05-16T15:20:11.324Z,4.40
2023-05-16T15:22:41.467Z,5.27
2023-05-16T15:25:09.185Z,5.57
2023-05-16T15:27:36.605Z,5.03
2023-05-16T15:30:04.118Z,5.80
2023-05-16T15:32:31.261Z,7.30
2023-05-16T15:34:58.264Z,5.47
2023-05-16T15:37:26.356Z,9.23
2023-05-16T15:39:53.236Z,7.47
2023-05-16T15:42:21.371Z,7.17
2023-05-16T15:44:48.397Z,6.47
2023-05-16T15:47:15.568Z,6.77
2023-05-16T15:49:42.910Z,6.20
2023-05-16T15:52:11.634Z,7.53
2023-05-16T15:54:38.682Z,6.47
2023-05-16T15:57:05.902Z,8.90
2023-05-16T15:59:32.848Z,7.40
2023-05-16T16:01:59.904Z,8.40
2023-05-16T16:04:26.973Z,6.77
2023-05-16T16:06:53.928Z,6.50
2023-05-16T16:09:21.242Z,8.57
2023-05-16T16:11:49.710Z,6.17
2023-05-16T16:14:16.723Z,10.30
2023-05-16T16:16:43.994Z,5.37
2023-05-16T16:19:11.104Z,7.70
2023-05-16T16:21:38.848Z,6.90
2023-05-16T16:24:06.556Z,6.80
2023-05-16T16:26:33.719Z,6.77
2023-05-16T16:29:00.889Z,8.70
2023-05-16T16:31:28.161Z,9.13
2023-05-16T16:33:55.310Z,6.47
2023-05-16T16:36:22.690Z,7.23
2023-05-16T16:38:49.719Z,20.00
2023-05-16T16:41:16.662Z,11.50
2023-05-16T16:43:43.686Z,20.70
2023-05-16T16:46:10.956Z,37.03
2023-05-16T16:48:38.274Z,11.50
2023-05-16T16:51:08.032Z,8.00
2023-05-16T16:53:37.838Z,6.57
2023-05-16T16:56:05.043Z,3.43
2023-05-16T16:58:31.977Z,4.30
2023-05-16T17:00:59.559Z,5.53
2023-05-16T17:03:26.672Z,4.30
2023-05-16T17:05:53.840Z,5.03
2023-05-16T17:08:20.990Z,6.83
2023-05-16T17:10:48.186Z,5.17
2023-05-16T17:13:17.284Z,6.07
2023-05-16T17:15:44.499Z,6.67
2023-05-16T17:18:11.509Z,6.63
2023-05-16T17:20:38.477Z,4.53
2023-05-16T17:23:05.477Z,5.83
2023-05-16T17:25:32.484Z,3.63
2023-05-16T17:27:59.499Z,4.13
2023-05-16T17:30:26.721Z,4.13
2023-05-16T17:32:54.171Z,3.90
2023-05-16T17:35:21.202Z,5.50
2023-05-16T17:37:49.845Z,4.07
2023-05-16T17:40:17.843Z,5.87
2023-05-16T17:42:45.694Z,5.57
2023-05-16T17:45:18.912Z,4.13
2023-05-16T17:47:45.896Z,5.57
2023-05-16T17:50:12.942Z,4.93
2023-05-16T17:52:40.444Z,30.83
2023-05-16T17:55:09.476Z,11.10
2023-05-16T17:57:36.572Z,13.30
2023-05-16T18:00:05.629Z,6.93
2023-05-16T18:02:36.031Z,16.65
2023-05-16T18:05:04.895Z,18.50
2023-05-16T18:07:32.069Z,11.17
2023-05-16T18:09:58.997Z,3.70
2023-05-16T18:12:26.064Z,5.07
2023-05-16T18:14:53.167Z,3.93
2023-05-16T18:17:20.222Z,3.80
2023-05-16T18:19:47.530Z,4.77
2023-05-16T18:22:14.835Z,2.97
2023-05-16T18:24:41.736Z,4.63
2023-05-16T18:27:08.858Z,3.90
2023-05-16T18:29:35.892Z,6.73
2023-05-16T18:32:03.047Z,3.20
2023-05-16T18:34:30.066Z,4.60
2023-05-16T18:36:57.118Z,8.13
2023-05-16T18:39:24.321Z,3.50
2023-05-16T18:41:51.537Z,2.83
2023-05-16T18:44:18.782Z,5.50
2023-05-16T18:46:46.535Z,4.70
2023-05-16T18:49:14.200Z,4.73
2023-05-16T18:51:41.284Z,4.90
2023-05-16T18:54:08.232Z,4.67
2023-05-16T18:56:35.231Z,5.47
2023-05-16T18:59:02.202Z,4.30
2023-05-16T19:01:29.245Z,5.70
2023-05-16T19:03:56.739Z,6.50
2023-05-16T19:06:23.887Z,12.90
2023-05-16T19:08:50.872Z,21.63
2023-05-16T19:11:18.331Z,15.80
2023-05-16T19:13:45.914Z,5.00
2023-05-16T19:16:12.996Z,5.47
2023-05-16T19:18:40.539Z,4.43
2023-05-16T19:21:08.543Z,5.80
2023-05-16T19:23:35.825Z,4.20
2023-05-16T19:26:02.767Z,4.67
2023-05-16T19:28:29.826Z,5.17
2023-05-16T19:30:57.730Z,4.90
2023-05-16T19:33:24.739Z,4.47
2023-05-16T19:35:52.852Z,3.80
2023-05-16T19:38:20.261Z,5.60
2023-05-16T19:40:47.317Z,20.57
2023-05-16T19:43:14.321Z,41.27
2023-05-16T19:45:41.367Z,13.40
2023-05-16T19:48:08.770Z,17.50
2023-05-16T19:50:36.492Z,16.77
2023-05-16T19:53:04.173Z,4.10
2023-05-16T19:55:31.626Z,11.17
2023-05-16T19:57:58.796Z,11.90
2023-05-16T20:00:25.727Z,8.53
2023-05-16T20:02:53.134Z,2.83
2023-05-16T20:05:22.991Z,3.27
2023-05-16T20:07:50.536Z,3.37
2023-05-16T20:10:18.720Z,4.10
2023-05-16T20:12:46.716Z,6.33
2023-05-16T20:15:13.689Z,16.37
2023-05-16T20:17:41.345Z,12.93
2023-05-16T20:20:09.595Z,25.00
2023-05-16T20:22:41.671Z,9.97
2023-05-16T20:25:10.413Z,7.23
2023-05-16T20:27:37.937Z,7.97
2023-05-16T20:30:06.773Z,17.83
2023-05-16T20:32:34.456Z,16.70
2023-05-16T20:35:04.329Z,13.70
2023-05-16T20:37:31.330Z,17.63
2023-05-16T20:40:00.493Z,17.53
2023-05-16T20:42:27.408Z,12.67
2023-05-16T20:44:54.350Z,8.33
2023-05-16T20:47:21.481Z,11.70
2023-05-16T20:49:48.519Z,11.57
2023-05-16T20:52:15.488Z,14.87
2023-05-16T20:54:42.436Z,8.37
2023-05-16T20:57:09.497Z,12.47
2023-05-16T20:59:37.538Z,12.50
2023-05-16T21:02:05.782Z,13.93
2023-05-16T21:04:32.952Z,11.10
2023-05-16T21:06:59.886Z,16.70
2023-05-16T21:09:26.905Z,14.17
2023-05-16T21:11:53.966Z,15.23
2023-05-16T21:14:20.845Z,14.50
2023-05-16T21:16:47.748Z,14.17
2023-05-16T21:19:14.840Z,12.27
2023-05-16T21:21:41.780Z,14.00
2023-05-16T21:24:08.707Z,6.73
2023-05-16T21:26:35.675Z,14.67
2023-05-16T21:29:02.658Z,17.43
2023-05-16T21:31:29.877Z,15.27
2023-05-16T21:33:56.873Z,14.20
2023-05-16T21:36:23.830Z,12.17
2023-05-16T21:38:50.801Z,6.13
2023-05-16T21:41:18.237Z,8.67
2023-05-16T21:43:45.272Z,9.00
2023-05-16T21:46:12.255Z,15.20
2023-05-16T21:48:39.418Z,17.60
2023-05-16T21:51:06.732Z,14.73
2023-05-16T21:53:34.447Z,12.77
2023-05-16T21:56:01.331Z,11.87
2023-05-16T21:58:28.262Z,12.07
2023-05-16T22:00:55.141Z,14.13
2023-05-16T22:03:22.376Z,14.00
2023-05-16T22:05:49.270Z,13.03
2023-05-16T22:08:16.259Z,14.53
2023-05-16T22:10:43.251Z,8.70
2023-05-16T22:13:10.640Z,14.83
2023-05-16T22:15:37.990Z,12.80
2023-05-16T22:18:05.675Z,20.00
2023-05-16T22:20:32.703Z,9.30
2023-05-16T22:22:59.722Z,7.80
2023-05-16T22:25:26.911Z,9.53
2023-05-16T22:27:54.086Z,9.07
2023-05-16T22:30:21.010Z,5.80
2023-05-16T22:32:48.000Z,7.73
2023-05-16T22:35:14.934Z,8.13
2023-05-16T22:37:42.092Z,9.30
2023-05-16T22:40:09.554Z,9.10
2023-05-16T22:42:36.441Z,10.27
2023-05-16T22:45:03.936Z,11.77
2023-05-16T22:47:30.986Z,7.53
2023-05-16T22:49:58.022Z,7.53
2023-05-16T22:52:25.015Z,13.67
2023-05-16T22:54:51.945Z,15.60
2023-05-16T22:57:18.838Z,19.17
2023-05-16T22:59:45.881Z,15.80
2023-05-16T23:02:12.805Z,15.77
2023-05-16T23:04:39.785Z,13.53
2023-05-16T23:07:06.708Z,9.80
2023-05-16T23:09:33.590Z,12.90
2023-05-16T23:12:00.855Z,17.17
2023-05-16T23:14:28.002Z,13.10
2023-05-16T23:16:54.906Z,16.50
2023-05-16T23:19:21.859Z,11.73
2023-05-16T23:21:48.901Z,12.37
2023-05-16T23:24:15.901Z,14.37
2023-05-16T23:26:42.820Z,11.93
2023-05-16T23:29:09.790Z,12.37
2023-05-16T23:31:36.670Z,13.20
2023-05-16T23:34:03.741Z,21.10
2023-05-16T23:36:31.081Z,18.47
2023-05-16T23:38:57.985Z,16.80
2023-05-16T23:41:24.903Z,18.43
2023-05-16T23:43:51.874Z,13.20
2023-05-16T23:46:18.758Z,13.43
2023-05-16T23:48:45.957Z,11.30
2023-05-16T23:51:12.884Z,13.43
2023-05-16T23:53:39.808Z,13.17
2023-05-16T23:56:06.854Z,14.80
2023-05-16T23:58:33.830Z,12.23
